Time;durP1;ratioP1;P1;durP2;ratioP2;P2;SDS_P1;SDS_P2;PMS_P1;PMS_P2;Temp;Humidity;BMP_temperature;BMP_pressure;BME280_temperature;BME280_humidity;BME280_pressure;Samples;Min_cycle;Max_cycle;Signal;HPM_P1;HPM_P2
2023/04/26 00:01:56;;;;;;;3.85;1.92;;;;;;;5.86;71.80;99799.09;10501314;28;20493;-73
2023/04/26 00:06:59;;;;;;;4.78;2.00;;;;;;;5.92;71.29;99807.69;10500463;28;20138;-73
2023/04/26 00:12:01;;;;;;;3.33;1.73;;;;;;;5.79;72.21;99813.97;10498933;28;20040;-73
2023/04/26 00:17:03;;;;;;;3.30;1.90;;;;;;;5.86;72.21;99810.38;10498182;28;20033;-74
2023/04/26 00:22:05;;;;;;;6.03;2.47;;;;;;;5.96;71.87;99817.19;10496313;28;20091;-72
2023/04/26 00:27:09;;;;;;;3.58;1.80;;;;;;;5.70;73.18;99820.19;10497478;28;20102;-72
2023/04/26 00:32:10;;;;;;;4.20;1.90;;;;;;;5.72;73.69;99825.38;10479114;28;20562;-72
2023/04/26 00:37:12;;;;;;;4.78;1.95;;;;;;;5.69;73.67;99822.81;10496990;28;20078;-73
2023/04/26 00:42:14;;;;;;;3.42;1.90;;;;;;;5.64;74.21;99828.09;10497089;28;20512;-73
2023/04/26 00:47:16;;;;;;;5.40;1.70;;;;;;;5.63;74.59;99833.34;10478516;28;20045;-73
2023/04/26 00:52:18;;;;;;;4.32;1.83;;;;;;;5.39;75.16;99829.34;10478526;28;20070;-73
2023/04/26 00:57:20;;;;;;;4.05;2.33;;;;;;;5.39;75.54;99839.75;10497488;28;20412;-73
2023/04/26 01:02:22;;;;;;;6.40;2.20;;;;;;;5.14;76.47;99844.47;10496970;28;20041;-71
2023/04/26 01:07:24;;;;;;;6.35;2.90;;;;;;;5.14;76.73;99839.25;10478223;28;20050;-73
2023/04/26 01:12:27;;;;;;;4.22;1.95;;;;;;;5.01;76.88;99842.00;10496082;28;20041;-73
2023/04/26 01:17:29;;;;;;;6.57;2.30;;;;;;;4.97;77.20;99848.13;10496769;28;20108;-73
2023/04/26 01:22:32;;;;;;;4.90;2.40;;;;;;;4.88;77.35;99848.22;10477440;28;20139;-73
2023/04/26 01:27:34;;;;;;;5.43;2.22;;;;;;;4.81;77.60;99842.22;10477436;28;20044;-73
2023/04/26 01:32:36;;;;;;;4.22;1.85;;;;;;;4.79;76.84;99851.81;10477077;28;20048;-72
2023/04/26 01:37:38;;;;;;;7.53;2.42;;;;;;;4.80;76.62;99848.31;10495997;28;20488;-72
2023/04/26 01:42:40;;;;;;;3.85;1.75;;;;;;;4.77;76.08;99850.09;10493676;28;20048;-72
2023/04/26 01:47:41;;;;;;;5.78;2.20;;;;;;;4.74;76.17;99856.22;10493886;28;20039;-72
2023/04/26 01:52:43;;;;;;;4.18;2.17;;;;;;;4.59;76.88;99858.97;10494642;28;20048;-73
2023/04/26 01:57:45;;;;;;;5.07;3.22;;;;;;;4.65;76.78;99858.03;10494563;28;20549;-73
2023/04/26 02:02:47;;;;;;;4.68;2.33;;;;;;;4.78;75.68;99863.09;10477141;28;20162;-72
2023/04/26 02:07:50;;;;;;;6.60;2.22;;;;;;;4.76;75.35;99854.44;10494717;28;20458;-73
2023/04/26 02:12:51;;;;;;;4.53;2.40;;;;;;;4.74;75.88;99866.63;10493099;28;20040;-73
2023/04/26 02:17:54;;;;;;;5.35;2.17;;;;;;;4.70;75.97;99869.28;10476095;28;20413;-73
2023/04/26 02:22:56;;;;;;;5.55;2.10;;;;;;;4.76;75.95;99861.38;10476531;28;20378;-74
2023/04/26 02:27:57;;;;;;;7.10;2.65;;;;;;;4.79;75.94;99867.44;10493019;28;20087;-73
2023/04/26 02:32:59;;;;;;;6.72;2.10;;;;;;;4.71;76.57;99865.78;10474605;28;20090;-73
2023/04/26 02:38:03;;;;;;;4.47;2.20;;;;;;;4.58;78.06;99865.03;10474322;28;20056;-73
2023/04/26 02:43:05;;;;;;;4.25;2.55;;;;;;;4.64;78.07;99864.97;10474388;28;20036;-72
2023/04/26 02:48:06;;;;;;;4.63;2.80;;;;;;;4.85;76.83;99863.88;10474404;28;20083;-73
2023/04/26 02:53:08;;;;;;;4.90;2.40;;;;;;;4.67;78.06;99857.13;10474177;28;20151;-72
2023/04/26 02:58:10;;;;;;;4.80;2.78;;;;;;;4.70;77.68;99864.94;10492070;28;20040;-72
2023/04/26 03:03:13;;;;;;;4.68;2.67;;;;;;;4.51;78.94;99874.63;10473953;28;20048;-73
2023/04/26 03:08:15;;;;;;;9.98;2.42;;;;;;;4.75;77.44;99868.34;10474157;28;20049;-72
2023/04/26 03:13:17;;;;;;;6.18;2.95;;;;;;;4.58;77.99;99875.47;10474600;28;20397;-72
2023/04/26 03:18:19;;;;;;;8.80;2.60;;;;;;;4.64;77.68;99872.78;10474736;28;20094;-72
2023/04/26 03:23:23;;;;;;;5.18;2.40;;;;;;;4.55;78.23;99878.94;10479201;28;20053;-72
2023/04/26 03:28:26;;;;;;;5.53;2.05;;;;;;;4.43;78.95;99881.69;10481370;28;20080;-73
2023/04/26 03:33:29;;;;;;;2.85;2.15;;;;;;;4.39;78.97;99887.78;10480371;28;20182;-72
2023/04/26 03:38:31;;;;;;;7.32;2.13;;;;;;;4.41;78.64;99879.97;10480495;28;20413;-72
2023/04/26 03:43:33;;;;;;;5.85;2.20;;;;;;;4.30;78.03;99878.31;10480831;28;20098;-72
2023/04/26 03:48:35;;;;;;;7.53;2.65;;;;;;;4.11;79.21;99884.53;10498180;28;20443;-73
2023/04/26 03:53:36;;;;;;;3.47;2.40;;;;;;;4.19;78.89;99898.34;10499500;28;20075;-72
2023/04/26 03:58:39;;;;;;;7.90;2.13;;;;;;;4.14;79.24;99899.28;10480731;28;20415;-73
2023/04/26 04:03:41;;;;;;;4.25;1.88;;;;;;;4.11;79.37;99894.09;10480114;28;20044;-73
2023/04/26 04:08:43;;;;;;;4.75;1.83;;;;;;;4.11;78.66;99904.50;10497536;28;20494;-72
2023/04/26 04:13:45;;;;;;;4.95;2.15;;;;;;;4.00;79.19;99908.03;10480334;28;20228;-72
2023/04/26 04:18:47;;;;;;;5.90;2.13;;;;;;;3.94;79.44;99905.50;10479945;28;20048;-73
2023/04/26 04:23:49;;;;;;;7.82;1.95;;;;;;;3.85;80.02;99904.66;10479340;28;20205;-73
2023/04/26 04:28:52;;;;;;;6.45;1.80;;;;;;;3.84;80.22;99909.00;10479663;28;20513;-73
2023/04/26 04:33:54;;;;;;;5.32;2.88;;;;;;;3.92;79.62;99908.97;10479682;28;20048;-72
2023/04/26 04:38:57;;;;;;;8.55;2.50;;;;;;;3.95;78.75;99914.16;10478865;28;20140;-74
2023/04/26 04:44:00;;;;;;;4.55;1.85;;;;;;;4.10;77.55;99916.63;10479099;28;20078;-74
2023/04/26 04:49:02;;;;;;;9.00;3.50;;;;;;;3.97;77.91;99918.47;10478862;28;20060;-73
2023/04/26 04:54:16;;;;;;;17.58;14.18;;;;;;;4.13;77.42;99928.78;10478555;28;20044;-72
2023/04/26 04:59:20;;;;;;;7.28;5.95;;;;;;;4.07;77.77;99928.78;10478491;28;20045;-72
2023/04/26 05:04:22;;;;;;;11.52;4.25;;;;;;;4.09;77.47;99937.47;10478547;28;20041;-72
2023/04/26 05:09:25;;;;;;;12.20;3.45;;;;;;;4.21;76.89;99937.38;10477797;28;20053;-73
2023/04/26 05:14:28;;;;;;;11.13;2.80;;;;;;;4.23;77.34;99943.44;10477615;28;20175;-74
2023/04/26 05:19:30;;;;;;;10.35;2.47;;;;;;;4.55;75.31;99943.16;10495525;28;20045;-73
2023/04/26 05:24:32;;;;;;;10.73;2.50;;;;;;;4.62;75.93;99946.59;10476876;28;20098;-73
2023/04/26 05:29:34;;;;;;;5.13;2.70;;;;;;;4.82;74.74;99944.63;10477615;28;20044;-73
2023/04/26 05:34:41;;;;;;;6.95;2.65;;;;;;;4.79;75.71;99952.50;10477565;28;20524;-73
2023/04/26 05:39:49;;;;;;;4.72;2.50;;;;;;;5.18;73.69;99956.44;10476907;28;20187;-73
2023/04/26 05:44:57;;;;;;;5.85;2.33;;;;;;;5.25;73.10;99963.28;10476092;28;20112;-72
2023/04/26 05:49:58;;;;;;;8.00;2.53;;;;;;;5.15;73.87;99971.25;10477904;28;20049;-74
2023/04/26 05:55:03;;;;;;;14.18;3.40;;;;;;;5.56;73.52;99976.84;10479241;28;20100;-75
2023/04/26 06:00:05;;;;;;;6.75;2.97;;;;;;;5.83;71.28;99982.56;10460691;28;20048;-73
2023/04/26 06:05:14;;;;;;;6.40;2.22;;;;;;;5.84;70.58;99986.91;10495711;28;20099;-74
2023/04/26 06:10:17;;;;;;;8.27;2.67;;;;;;;6.01;70.42;99982.34;10476472;28;20044;-74
2023/04/26 06:15:19;;;;;;;6.13;2.50;;;;;;;6.38;68.39;99988.81;10476790;28;20036;-74
2023/04/26 06:20:21;;;;;;;8.20;2.17;;;;;;;6.31;67.91;99985.41;10477170;28;20109;-73
2023/04/26 06:25:22;;;;;;;6.47;2.00;;;;;;;6.80;65.10;99995.06;10495019;28;20040;-74
2023/04/26 06:30:24;;;;;;;6.22;2.55;;;;;;;6.70;65.72;99988.28;10476277;28;20466;-73
2023/04/26 06:35:27;;;;;;;8.43;2.33;;;;;;;6.69;65.16;99991.78;10476549;28;20429;-74
2023/04/26 06:40:29;;;;;;;8.95;2.58;;;;;;;7.27;62.74;99993.38;10476621;28;20075;-74
2023/04/26 06:45:31;;;;;;;7.57;2.28;;;;;;;7.02;62.87;99991.19;10477004;28;20068;-74
2023/04/26 06:50:38;;;;;;;11.80;2.55;;;;;;;7.02;61.02;99996.41;10477032;28;20095;-74
2023/04/26 06:55:40;;;;;;;11.63;2.22;;;;;;;7.39;61.70;99995.72;10495088;28;20489;-73
2023/04/26 07:00:42;;;;;;;8.60;2.28;;;;;;;7.33;60.56;100004.56;10502444;28;20130;-74
2023/04/26 07:05:44;;;;;;;9.25;2.30;;;;;;;7.17;61.34;100015.31;10501716;28;20115;-74
2023/04/26 07:10:45;;;;;;;8.85;2.22;;;;;;;7.04;60.51;100010.34;10482873;28;20150;-74
2023/04/26 07:15:47;;;;;;;9.32;2.35;;;;;;;7.83;58.98;100002.69;10482383;28;20040;-74
2023/04/26 07:20:49;;;;;;;6.85;1.80;;;;;;;7.51;56.56;100011.19;10501295;28;20166;-74
2023/04/26 07:25:55;;;;;;;9.38;2.03;;;;;;;6.75;58.59;100017.78;10501683;28;20530;-74
2023/04/26 07:31:00;;;;;;;5.95;2.00;;;;;;;6.63;59.71;100016.22;10501413;28;20049;-75
2023/04/26 07:36:01;;;;;;;7.03;1.50;;;;;;;7.01;59.32;100014.75;10482317;28;20076;-73
2023/04/26 07:41:03;;;;;;;4.40;1.27;;;;;;;7.55;53.94;100009.38;10499673;28;20040;-74
2023/04/26 07:46:05;;;;;;;5.78;1.63;;;;;;;7.70;54.81;100010.81;10497699;28;20044;-75
2023/04/26 07:51:09;;;;;;;6.68;1.40;;;;;;;8.06;53.64;100015.28;10498776;28;20123;-74
2023/04/26 07:56:11;;;;;;;10.35;1.80;;;;;;;7.44;53.79;100008.72;10498484;28;20471;-73
2023/04/26 08:01:13;;;;;;;7.78;1.75;;;;;;;7.52;52.24;100007.66;10479797;28;20056;-73
2023/04/26 08:06:17;;;;;;;7.47;1.50;;;;;;;7.39;54.19;100013.16;10498599;28;20055;-72
2023/04/26 08:11:19;;;;;;;6.13;1.40;;;;;;;7.47;53.59;100004.28;10498173;28;20059;-72
2023/04/26 08:16:21;;;;;;;6.43;1.75;;;;;;;7.45;55.01;100013.06;10499854;28;20064;-72
2023/04/26 08:21:23;;;;;;;8.25;1.70;;;;;;;7.70;51.81;100005.56;10499903;28;20047;-73
2023/04/26 08:26:25;;;;;;;6.55;1.60;;;;;;;8.50;50.57;100021.31;10498710;28;20124;-72
2023/04/26 08:31:26;;;;;;;4.63;1.20;;;;;;;8.28;47.20;100018.28;10479141;28;20068;-72
2023/04/26 08:36:28;;;;;;;5.97;1.35;;;;;;;7.98;50.76;100025.06;10496994;28;20072;-73
2023/04/26 08:41:41;;;;;;;6.97;2.17;;;;;;;8.70;49.55;100014.72;10496917;28;20045;-72
2023/04/26 08:46:52;;;;;;;5.65;1.50;;;;;;;8.44;49.21;100024.06;10497633;28;20036;-72
2023/04/26 08:51:56;;;;;;;4.50;1.50;;;;;;;8.72;48.07;100011.19;10497517;28;20172;-72
2023/04/26 08:56:59;;;;;;;5.80;1.70;;;;;;;8.86;46.51;100016.06;10497956;28;20041;-74
2023/04/26 09:02:04;;;;;;;8.48;1.58;;;;;;;8.59;47.34;100012.38;10496414;28;20179;-72
2023/04/26 09:07:07;;;;;;;9.40;1.77;;;;;;;8.50;46.21;100010.84;10496257;28;20063;-72
2023/04/26 09:12:08;;;;;;;3.63;1.30;;;;;;;8.03;46.09;100014.47;10495657;28;20106;-74
2023/04/26 09:17:25;;;;;;;5.15;1.40;;;;;;;8.11;46.23;100011.72;10496166;28;20055;-72
2023/04/26 09:22:27;;;;;;;;;;;;;;;8.03;47.69;100023.19;10496159;28;20044;-73
2023/04/26 09:27:36;;;;;;;7.45;1.52;;;;;;;8.27;49.35;100024.41;10496469;28;20289;-73
2023/04/26 09:32:48;;;;;;;7.38;2.05;;;;;;;9.16;47.83;100021.41;10496453;28;20048;-71
2023/04/26 09:37:52;;;;;;;7.78;1.98;;;;;;;8.91;46.14;100026.44;10487439;28;20040;-72
2023/04/26 09:43:12;;;;;;;4.03;1.65;;;;;;;8.43;48.10;100027.56;10463682;28;20037;-73
2023/04/26 09:48:21;;;;;;;4.20;1.67;;;;;;;8.61;48.58;100028.03;10453631;28;20119;-73
2023/04/26 09:53:27;;;;;;;6.53;2.10;;;;;;;9.64;46.38;100018.38;10452980;28;20140;-72
2023/04/26 09:58:29;;;;;;;4.95;1.55;;;;;;;10.31;41.51;100016.41;10454176;28;20052;-72
2023/04/26 10:03:33;;;;;;;7.00;1.42;;;;;;;10.40;41.93;100021.38;10435747;28;20076;-73
2023/04/26 10:08:36;;;;;;;3.83;1.35;;;;;;;9.33;41.47;100024.44;10453224;28;20152;-73
2023/04/26 10:13:40;;;;;;;4.53;1.67;;;;;;;8.87;44.05;100033.53;10452326;28;20088;-72
2023/04/26 10:18:42;;;;;;;8.98;2.00;;;;;;;8.44;45.30;100031.91;10452516;28;20158;-72
2023/04/26 10:23:44;;;;;;;4.32;1.58;;;;;;;8.16;47.49;100036.88;10452851;28;20107;-72
2023/04/26 10:28:46;;;;;;;7.45;2.25;;;;;;;8.35;47.15;100027.72;10452087;28;20127;-72
2023/04/26 10:34:17;;;;;;;4.65;1.50;;;;;;;9.03;44.67;100021.75;10433284;28;20410;-71
2023/04/26 10:39:24;;;;;;;4.57;1.20;;;;;;;8.87;44.05;100023.03;10452874;28;20056;-74
2023/04/26 10:44:38;;;;;;;3.47;1.50;;;;;;;8.84;46.91;100025.72;10453702;28;20045;-73
2023/04/26 10:49:45;;;;;;;4.30;1.48;;;;;;;9.34;43.32;100023.53;10418086;28;20047;-71
2023/04/26 10:54:52;;;;;;;5.10;1.48;;;;;;;9.64;42.98;100016.59;10452474;28;20124;-73
2023/04/26 11:00:09;;;;;;;2.87;1.13;;;;;;;9.31;43.31;100016.63;10451711;28;20087;-71
2023/04/26 11:05:36;;;;;;;4.05;1.23;;;;;;;9.08;44.12;100014.63;10452394;28;20136;-73
2023/04/26 11:10:38;;;;;;;5.93;1.73;;;;;;;9.28;42.34;100016.72;10451461;28;20052;-73
2023/04/26 11:15:39;;;;;;;4.20;1.60;;;;;;;9.41;41.72;100025.13;10450092;28;20044;-72
2023/04/26 11:20:43;;;;;;;3.15;1.40;;;;;;;9.67;42.54;100016.53;10450443;28;20049;-72
2023/04/26 11:25:45;;;;;;;4.40;1.40;;;;;;;10.10;42.60;100018.75;10451198;28;20156;-73
2023/04/26 11:30:48;;;;;;;4.03;1.13;;;;;;;10.42;38.71;100011.69;10434263;28;20135;-73
2023/04/26 11:35:54;;;;;;;5.25;1.52;;;;;;;9.76;40.66;100025.91;10451096;28;20048;-71
2023/04/26 11:40:57;;;;;;;4.30;2.17;;;;;;;9.28;40.22;100027.19;10451422;28;20084;-71
2023/04/26 11:46:02;;;;;;;3.53;1.10;;;;;;;8.83;42.20;100027.47;10440017;28;20546;-71
2023/04/26 11:51:06;;;;;;;7.32;1.40;;;;;;;8.83;45.31;100035.34;10457677;28;20332;-72
2023/04/26 11:56:19;;;;;;;3.95;1.35;;;;;;;8.58;46.51;100036.81;10456630;28;20371;-72
2023/04/26 12:01:28;;;;;;;3.40;1.30;;;;;;;8.69;47.01;100040.06;10457511;28;20422;-73
2023/04/26 12:06:31;;;;;;;3.95;1.60;;;;;;;8.88;46.17;100043.09;10457264;28;20068;-73
2023/04/26 12:11:33;;;;;;;2.70;1.33;;;;;;;9.40;45.01;100033.03;10457506;28;20045;-73
2023/04/26 12:16:36;;;;;;;3.45;1.50;;;;;;;9.54;44.20;100052.75;10457565;28;20487;-73
2023/04/26 12:21:41;;;;;;;5.57;2.00;;;;;;;9.55;45.93;100041.34;10458840;28;20045;-73
2023/04/26 12:26:43;;;;;;;7.07;1.85;;;;;;;9.23;44.25;100043.97;10458607;28;20140;-72
2023/04/26 12:31:45;;;;;;;7.38;2.63;;;;;;;9.27;46.22;100041.22;10456114;28;20469;-73
2023/04/26 12:36:47;;;;;;;3.88;1.80;;;;;;;9.81;44.69;100037.13;10455436;28;20331;-73
2023/04/26 12:41:49;;;;;;;4.40;1.80;;;;;;;9.72;44.20;100035.63;10455849;28;20123;-72
2023/04/26 12:46:51;;;;;;;4.68;1.98;;;;;;;10.08;43.82;100028.44;10455411;28;20110;-72
2023/04/26 12:51:53;;;;;;;3.33;1.75;;;;;;;10.14;44.84;100040.56;10454731;28;20048;-73
2023/04/26 12:56:55;;;;;;;6.20;2.30;;;;;;;9.72;43.54;100030.38;10454660;28;20459;-74
2023/04/26 13:01:56;;;;;;;5.53;2.05;;;;;;;9.53;43.36;100043.16;10438190;28;20113;-71
2023/04/26 13:06:58;;;;;;;4.20;1.08;;;;;;;9.58;41.97;100038.63;10455812;28;20149;-72
2023/04/26 13:12:00;;;;;;;3.08;1.10;;;;;;;9.77;41.98;100030.25;10437244;28;20151;-72
2023/04/26 13:17:03;;;;;;;5.18;1.75;;;;;;;9.96;41.69;100036.69;10454419;28;20041;-72
2023/04/26 13:22:07;;;;;;;4.80;1.73;;;;;;;9.82;42.78;100018.69;10453362;28;20049;-72
2023/04/26 13:27:08;;;;;;;6.97;1.73;;;;;;;10.34;40.60;100027.69;10453644;28;20436;-72
2023/04/26 13:32:10;;;;;;;3.63;1.77;;;;;;;10.19;42.10;100037.78;10453034;28;20375;-72
2023/04/26 13:37:12;;;;;;;4.75;1.70;;;;;;;9.81;42.93;100026.63;10435765;28;20045;-72
2023/04/26 13:42:15;;;;;;;5.32;1.80;;;;;;;9.86;42.48;100029.97;10467214;28;20037;-72
2023/04/26 13:47:17;;;;;;;12.00;1.60;;;;;;;9.77;42.68;100041.59;10460807;28;20087;-73
2023/04/26 13:52:19;;;;;;;7.05;1.33;;;;;;;9.82;42.09;100037.06;10495281;28;20044;-73
2023/04/26 13:57:20;;;;;;;5.10;1.65;;;;;;;9.92;42.67;100040.31;10475102;28;20138;-72
2023/04/26 14:02:23;;;;;;;4.15;1.30;;;;;;;10.00;41.70;100037.44;10494557;28;20044;-72
2023/04/26 14:07:25;;;;;;;3.50;1.50;;;;;;;10.07;42.71;100031.97;10495195;28;20045;-72
2023/04/26 14:12:28;;;;;;;4.03;1.25;;;;;;;10.53;41.35;100040.25;10495070;28;20127;-72
2023/04/26 14:17:31;;;;;;;4.47;1.40;;;;;;;10.18;41.12;100042.19;10494052;28;20047;-73
2023/04/26 14:22:33;;;;;;;6.30;2.75;;;;;;;10.09;40.70;100039.81;10494603;28;20036;-72
2023/04/26 14:27:34;;;;;;;4.20;1.58;;;;;;;9.94;42.46;100042.88;10494678;28;20040;-74
2023/04/26 14:32:36;;;;;;;4.90;1.63;;;;;;;9.81;42.82;100051.09;10494818;28;20044;-74
2023/04/26 14:37:38;;;;;;;5.85;1.75;;;;;;;9.79;42.54;100052.06;10476574;28;20037;-73
2023/04/26 14:42:44;;;;;;;4.75;1.42;;;;;;;9.48;42.37;100045.03;10495168;28;20056;-73
2023/04/26 14:47:46;;;;;;;2.80;1.10;;;;;;;9.63;43.48;100049.00;10494594;28;20050;-73
2023/04/26 14:52:48;;;;;;;6.97;2.20;;;;;;;9.69;43.03;100050.59;10476417;28;20124;-74
2023/04/26 14:57:51;;;;;;;5.22;1.50;;;;;;;9.68;42.47;100060.22;10494228;28;20037;-73
2023/04/26 15:02:52;;;;;;;5.15;1.50;;;;;;;9.51;43.38;100054.56;10494769;28;20052;-73
2023/04/26 15:07:55;;;;;;;5.43;1.85;;;;;;;9.56;42.70;100053.56;10477667;28;20047;-73
2023/04/26 15:12:57;;;;;;;5.47;1.88;;;;;;;9.78;43.47;100042.44;10478066;28;20044;-73
2023/04/26 15:17:59;;;;;;;5.60;1.58;;;;;;;9.70;43.51;100049.72;10498710;28;20136;-74
2023/04/26 15:23:01;;;;;;;5.70;2.03;;;;;;;9.75;42.70;100051.28;10503273;28;20463;-73
2023/04/26 15:28:03;;;;;;;5.03;1.55;;;;;;;9.46;44.37;100056.47;10483552;28;20117;-73
2023/04/26 15:33:06;;;;;;;4.95;1.77;;;;;;;9.46;43.80;100054.69;10502105;28;20049;-74
2023/04/26 15:38:08;;;;;;;6.90;1.52;;;;;;;9.39;43.23;100047.06;10501631;28;20168;-74
2023/04/26 15:43:10;;;;;;;7.20;1.63;;;;;;;9.19;44.15;100058.06;10501396;28;20431;-73
2023/04/26 15:48:12;;;;;;;4.38;1.42;;;;;;;9.23;44.29;100050.06;10500276;28;20439;-73
2023/04/26 15:53:13;;;;;;;3.78;2.03;;;;;;;9.31;43.58;100057.75;10500323;28;20371;-73
2023/04/26 15:58:16;;;;;;;4.75;2.28;;;;;;;9.20;43.71;100063.25;10500777;28;20124;-74
2023/04/26 16:03:17;;;;;;;5.90;2.42;;;;;;;9.08;44.25;100061.81;10498805;28;20047;-72
2023/04/26 16:08:21;;;;;;;7.38;2.97;;;;;;;8.87;45.58;100053.63;10501019;28;20041;-74
2023/04/26 16:13:41;;;;;;;6.53;3.10;;;;;;;8.98;45.71;100054.22;10502446;28;20103;-73
2023/04/26 16:18:43;;;;;;;4.22;2.42;;;;;;;8.89;44.53;100054.44;10502116;28;20453;-73
2023/04/26 16:23:45;;;;;;;4.28;1.88;;;;;;;8.82;44.39;100059.84;10502479;28;20041;-73
2023/04/26 16:28:48;;;;;;;6.55;1.70;;;;;;;8.77;45.63;100056.47;10499586;28;20072;-73
2023/04/26 16:33:50;;;;;;;4.45;1.90;;;;;;;8.77;45.21;100056.47;10499342;28;20064;-73
2023/04/26 16:38:53;;;;;;;2.75;1.67;;;;;;;8.65;44.86;100062.00;10482144;28;20117;-73
2023/04/26 16:43:54;;;;;;;7.45;1.50;;;;;;;8.57;45.50;100058.69;10481069;28;20043;-74
2023/04/26 16:48:56;;;;;;;3.30;1.38;;;;;;;8.72;45.79;100063.59;10480372;28;20042;-73
2023/04/26 16:53:58;;;;;;;5.38;1.52;;;;;;;8.86;45.48;100060.63;10498135;28;20181;-73
2023/04/26 16:59:00;;;;;;;4.38;1.60;;;;;;;8.88;45.32;100063.22;10498429;28;20040;-73
2023/04/26 17:04:02;;;;;;;4.38;1.83;;;;;;;8.61;46.22;100069.97;10480792;28;20049;-73
2023/04/26 17:09:04;;;;;;;4.18;1.98;;;;;;;8.68;46.69;100074.19;10498078;28;20462;-73
2023/04/26 17:14:06;;;;;;;6.80;2.60;;;;;;;8.63;47.21;100073.41;10497348;28;20074;-73
2023/04/26 17:19:08;;;;;;;6.68;2.83;;;;;;;8.59;47.17;100070.88;10497355;28;20068;-72
2023/04/26 17:24:09;;;;;;;5.13;2.70;;;;;;;8.68;47.13;100077.66;10497062;28;20049;-73
2023/04/26 17:29:11;;;;;;;8.65;2.22;;;;;;;8.32;47.39;100087.16;10478717;28;20044;-73
2023/04/26 17:34:13;;;;;;;3.78;2.00;;;;;;;8.52;47.76;100087.63;10478115;28;20047;-72
2023/04/26 17:39:16;;;;;;;7.20;2.30;;;;;;;8.58;47.85;100090.09;10495063;28;20099;-74
2023/04/26 17:44:18;;;;;;;5.05;2.38;;;;;;;8.58;47.95;100089.22;10495348;28;20107;-73
2023/04/26 17:49:21;;;;;;;3.75;1.73;;;;;;;8.33;49.12;100094.13;10524214;22;20565;-71
2023/04/26 17:54:23;;;;;;;3.40;2.17;;;;;;;8.25;48.93;100099.53;10531649;28;20059;-71
2023/04/26 17:59:25;;;;;;;9.25;4.85;;;;;;;8.16;49.24;100097.09;10532646;28;20054;-70
2023/04/26 18:04:26;;;;;;;5.47;2.38;;;;;;;8.13;49.61;100093.69;10532124;28;20110;-71
2023/04/26 18:09:29;;;;;;;7.07;2.10;;;;;;;8.12;49.85;100103.31;10532458;28;20127;-71
2023/04/26 18:14:31;;;;;;;4.75;1.98;;;;;;;7.98;51.08;100106.19;10532375;28;20063;-72
2023/04/26 18:19:32;;;;;;;6.05;2.75;;;;;;;7.91;51.12;100109.81;10531205;28;20059;-71
2023/04/26 18:24:34;;;;;;;4.93;2.40;;;;;;;7.85;52.07;100107.34;10532536;28;20123;-71
2023/04/26 18:29:36;;;;;;;7.03;2.42;;;;;;;8.30;50.55;100110.75;10531618;28;20521;-71
2023/04/26 18:34:38;;;;;;;6.10;1.73;;;;;;;8.22;50.66;100122.28;10531258;28;20464;-73
2023/04/26 18:39:40;;;;;;;7.85;2.40;;;;;;;8.14;50.82;100118.97;10530387;28;20047;-70
2023/04/26 18:44:42;;;;;;;5.95;2.15;;;;;;;8.02;52.00;100122.72;10530168;28;20408;-71
2023/04/26 18:49:44;;;;;;;5.40;2.03;;;;;;;8.02;52.02;100131.44;10530451;28;20032;-71
2023/04/26 18:54:45;;;;;;;7.28;2.28;;;;;;;7.94;52.69;100125.47;10537343;28;20101;-70
2023/04/26 18:59:48;;;;;;;7.63;2.35;;;;;;;8.07;52.55;100120.88;10503470;28;20051;-70
2023/04/26 19:04:49;;;;;;;4.68;1.63;;;;;;;7.91;53.09;100136.00;10539763;28;20150;-72
2023/04/26 19:09:54;;;;;;;6.95;2.55;;;;;;;7.67;54.21;100136.47;10541912;28;20040;-73
2023/04/26 19:14:59;;;;;;;5.03;2.20;;;;;;;7.55;54.83;100146.25;10539758;28;20058;-72
2023/04/26 19:20:06;;;;;;;6.55;2.00;;;;;;;7.47;55.26;100142.03;10538153;28;20040;-71
2023/04/26 19:25:08;;;;;;;4.97;2.30;;;;;;;7.56;55.92;100144.50;10520365;28;20111;-71
2023/04/26 19:30:11;;;;;;;5.05;2.35;;;;;;;7.36;56.14;100147.47;10516925;28;20123;-71
2023/04/26 19:35:12;;;;;;;4.07;2.05;;;;;;;7.46;56.78;100146.41;10519925;28;20211;-71
2023/04/26 19:40:14;;;;;;;5.80;2.05;;;;;;;7.50;55.30;100150.72;10518372;28;20059;-71
2023/04/26 19:45:19;;;;;;;4.60;2.05;;;;;;;7.32;56.76;100151.88;10537033;28;20153;-71
2023/04/26 19:50:20;;;;;;;3.67;2.03;;;;;;;7.29;56.09;100161.53;10536119;28;20036;-71
2023/04/26 19:55:22;;;;;;;5.95;2.15;;;;;;;7.40;55.38;100161.38;10535644;28;20172;-70
2023/04/26 20:00:24;;;;;;;3.88;2.00;;;;;;;7.51;55.22;100154.19;10501258;28;20071;-71
2023/04/26 20:05:27;;;;;;;4.65;1.88;;;;;;;7.29;56.22;100157.16;10536109;28;20115;-71
2023/04/26 20:10:30;;;;;;;4.97;1.80;;;;;;;7.28;55.79;100160.66;10536350;28;20064;-71
2023/04/26 20:15:33;;;;;;;5.18;2.28;;;;;;;7.19;56.46;100163.44;10536429;28;20215;-71
2023/04/26 20:20:34;;;;;;;6.32;2.33;;;;;;;7.32;55.09;100158.88;10535786;28;20469;-71
2023/04/26 20:25:36;;;;;;;11.02;2.03;;;;;;;7.26;55.14;100161.56;10534959;28;20122;-71
2023/04/26 20:30:38;;;;;;;4.13;1.70;;;;;;;6.93;56.28;100157.75;10516159;28;20095;-71
2023/04/26 20:35:40;;;;;;;4.28;1.63;;;;;;;6.93;56.21;100160.34;10535079;28;20048;-71
2023/04/26 20:40:42;;;;;;;5.07;2.17;;;;;;;6.73;56.55;100151.06;10534852;28;20126;-69
2023/04/26 20:45:43;;;;;;;6.38;2.60;;;;;;;6.47;58.26;100147.94;10534392;28;20409;-69
2023/04/26 20:50:45;;;;;;;5.95;2.45;;;;;;;6.38;58.20;100146.31;10533975;28;20177;-69
2023/04/26 20:55:47;;;;;;;6.57;3.05;;;;;;;6.38;58.11;100142.84;10515982;28;20122;-70
2023/04/26 21:00:54;;;;;;;5.03;3.28;;;;;;;5.88;60.82;100139.03;10534826;28;20040;-70
2023/04/26 21:05:55;;;;;;;5.72;2.70;;;;;;;5.70;61.90;100145.31;10533580;28;20151;-69
2023/04/26 21:10:57;;;;;;;4.32;2.63;;;;;;;5.50;63.40;100151.59;10533151;28;20063;-69
2023/04/26 21:15:59;;;;;;;5.28;2.88;;;;;;;5.60;63.19;100154.13;10532440;28;20040;-68
2023/04/26 21:21:01;;;;;;;7.60;2.53;;;;;;;5.51;64.64;100155.94;10532575;28;20119;-68
2023/04/26 21:26:02;;;;;;;6.18;2.85;;;;;;;5.58;62.69;100159.34;10532380;28;20070;-68
2023/04/26 21:31:06;;;;;;;4.70;3.03;;;;;;;5.55;62.51;100164.59;10532256;28;20048;-68
2023/04/26 21:36:08;;;;;;;7.28;2.90;;;;;;;5.64;62.11;100163.66;10513860;28;20127;-68
2023/04/26 21:41:10;;;;;;;5.95;2.88;;;;;;;5.41;62.65;100169.94;10513161;28;20047;-68
2023/04/26 21:46:11;;;;;;;5.97;2.90;;;;;;;5.51;62.19;100173.31;10533160;28;20126;-70
2023/04/26 21:51:13;;;;;;;4.55;3.00;;;;;;;5.57;61.61;100176.72;10531721;28;20056;-68
2023/04/26 21:56:15;;;;;;;5.35;3.10;;;;;;;5.46;62.02;100183.78;10514304;28;20051;-68
2023/04/26 22:01:20;;;;;;;7.18;3.17;;;;;;;5.31;62.46;100184.78;10513628;28;20057;-69
2023/04/26 22:06:21;;;;;;;4.80;2.42;;;;;;;5.21;62.59;100184.84;10532485;28;20436;-68
2023/04/26 22:11:23;;;;;;;5.90;2.78;;;;;;;4.94;64.63;100192.00;10532123;28;20040;-68
2023/04/26 22:16:25;;;;;;;3.83;2.50;;;;;;;4.67;65.21;100192.16;10532341;28;20044;-68
2023/04/26 22:21:27;;;;;;;6.40;2.53;;;;;;;4.50;66.06;100195.69;10532176;28;20094;-68
2023/04/26 22:26:29;;;;;;;5.75;3.00;;;;;;;4.38;66.60;100200.94;10513024;28;20040;-68
2023/04/26 22:31:30;;;;;;;4.88;2.67;;;;;;;4.28;68.34;100194.91;10530437;28;20441;-68
2023/04/26 22:36:32;;;;;;;5.57;3.63;;;;;;;4.28;69.33;100212.28;10532335;28;20043;-71
2023/04/26 22:41:34;;;;;;;6.30;3.88;;;;;;;4.18;70.49;100206.25;10513986;28;20067;-72
2023/04/26 22:46:36;;;;;;;7.13;6.30;;;;;;;4.05;71.64;100209.75;10531162;28;20384;-71
2023/04/26 22:51:37;;;;;;;7.90;7.15;;;;;;;3.98;72.42;100218.41;10531438;28;20381;-71
2023/04/26 22:56:39;;;;;;;10.15;9.35;;;;;;;3.95;72.77;100226.25;10513366;28;20062;-72
2023/04/26 23:01:41;;;;;;;14.45;13.05;;;;;;;3.84;73.66;100228.84;10513637;28;20150;-71
2023/04/26 23:06:43;;;;;;;15.68;11.38;;;;;;;3.72;74.74;100229.75;10531500;28;20139;-70
2023/04/26 23:11:45;;;;;;;11.95;8.18;;;;;;;3.68;75.15;100229.75;10511829;28;20447;-71
2023/04/26 23:16:46;;;;;;;9.85;7.47;;;;;;;3.63;75.83;100226.25;10530299;28;20040;-71
2023/04/26 23:21:48;;;;;;;7.95;5.50;;;;;;;3.62;75.41;100232.34;10512140;28;20063;-70
2023/04/26 23:26:50;;;;;;;6.25;4.00;;;;;;;3.76;74.07;100227.97;10530767;28;20385;-71
2023/04/26 23:31:52;;;;;;;11.23;5.32;;;;;;;3.67;75.19;100228.00;10512451;28;20097;-71